Time,TemperatureF,DewpointF,PressureIn,WindDirection,WindDirectionDegrees,WindSpeedMPH,WindSpeedGustMPH,Humidity,HourlyPrecipIn,Conditions,Clouds,dailyrainin,SoftwareType,DateUTC
2013-12-25 00:02:00,24.2,22.5,30.30,WSW,251,1.0,2.0,93,0.00,,OVC015,0.00,VWS V14.01,2013-12-25 06:02:00,
2013-12-25 00:07:00,24.3,22.6,30.30,WNW,292,0.0,4.0,93,0.00,,OVC015,0.00,VWS V14.01,2013-12-25 06:07:00,
2013-12-25 00:12:00,24.6,22.9,30.30,WNW,299,1.0,2.0,93,0.00,,OVC015,0.00,VWS V14.01,2013-12-25 06:12:00,
2013-12-25 00:17:00,24.7,23.0,30.31,WNW,287,3.0,3.0,93,0.00,,OVC015,0.00,VWS V14.01,2013-12-25 06:17:00,
2013-12-25 00:23:00,24.8,23.1,30.31,West,262,2.0,3.0,93,0.00,,OVC015,0.00,VWS V14.01,2013-12-25 06:23:00,
2013-12-25 00:28:00,24.8,23.1,30.31,West,272,2.0,3.0,93,0.00,,OVC015,0.00,VWS V14.01,2013-12-25 06:28:00,
2013-12-25 00:33:00,24.8,23.1,30.30,WNW,291,1.0,2.0,93,0.00,,OVC015,0.00,VWS V14.01,2013-12-25 06:33:00,
2013-12-25 00:38:00,24.9,23.2,30.31,NW,307,3.0,3.0,93,0.00,,OVC015,0.00,VWS V14.01,2013-12-25 06:38:00,
2013-12-25 00:43:00,25.0,23.3,30.30,WNW,295,1.0,4.0,93,0.00,,OVC016,0.00,VWS V14.01,2013-12-25 06:43:00,
2013-12-25 00:48:00,25.0,23.3,30.31,NNW,336,2.0,3.0,93,0.00,,OVC016,0.00,VWS V14.01,2013-12-25 06:48:00,
2013-12-25 00:53:00,25.1,23.4,30.31,WNW,303,4.0,6.0,93,0.00,,OVC016,0.00,VWS V14.01,2013-12-25 06:53:00,
2013-12-25 00:58:00,25.2,23.5,30.31,WNW,290,3.0,5.0,93,0.00,,OVC016,0.00,VWS V14.01,2013-12-25 06:58:00,
2013-12-25 01:03:00,25.2,23.5,30.31,WNW,285,4.0,6.0,93,0.00,,OVC016,0.00,VWS V14.01,2013-12-25 07:03:00,
2013-12-25 01:08:00,25.2,23.2,30.30,WNW,301,3.0,3.0,92,0.00,,OVC016,0.00,VWS V14.01,2013-12-25 07:08:00,
2013-12-25 01:13:00,25.3,23.3,30.30,WNW,291,2.0,3.0,92,0.00,,OVC016,0.00,VWS V14.01,2013-12-25 07:13:00,
2013-12-25 01:18:00,25.3,23.3,30.30,NW,312,4.0,4.0,92,0.00,,OVC016,0.00,VWS V14.01,2013-12-25 07:18:00,
2013-12-25 01:20:00,25.3,23.3,30.30,WNW,301,5.0,6.0,92,0.00,,OVC016,0.00,VWS V14.01,2013-12-25 07:20:00,
2013-12-25 01:25:00,25.3,23.0,30.30,WNW,293,2.0,5.0,91,0.00,,OVC016,0.00,VWS V14.01,2013-12-25 07:25:00,
2013-12-25 01:30:00,25.3,22.8,30.30,NW,309,6.0,9.0,90,0.00,,OVC016,0.00,VWS V14.01,2013-12-25 07:30:00,
2013-12-25 01:35:00,25.3,22.8,30.30,WNW,303,3.0,6.0,90,0.00,,OVC016,0.00,VWS V14.01,2013-12-25 07:35:00,
2013-12-25 01:40:00,25.2,22.4,30.30,WNW,301,3.0,7.0,89,0.00,,OVC016,0.00,VWS V14.01,2013-12-25 07:40:00,
2013-12-25 01:45:00,25.2,22.4,30.30,WNW,290,8.0,9.0,89,0.00,,OVC014,0.00,VWS V14.01,2013-12-25 07:45:00,
2013-12-25 01:50:00,25.1,22.0,30.30,NNE,23,3.0,5.0,88,0.00,,OVC014,0.00,VWS V14.01,2013-12-25 07:50:00,
2013-12-25 01:55:00,25.1,22.0,30.30,WNW,301,4.0,7.0,88,0.00,,OVC014,0.00,VWS V14.01,2013-12-25 07:55:00,
2013-12-25 02:00:00,25.0,22.0,30.31,NNW,340,5.0,8.0,88,0.00,,OVC014,0.00,VWS V14.01,2013-12-25 08:00:00,
2013-12-25 02:05:00,24.9,21.6,30.31,WNW,295,2.0,5.0,87,0.00,,OVC014,0.00,VWS V14.01,2013-12-25 08:05:00,
2013-12-25 02:10:00,24.8,21.5,30.31,NW,318,3.0,5.0,87,0.00,,OVC014,0.00,VWS V14.01,2013-12-25 08:10:00,
2013-12-25 02:15:00,24.8,21.5,30.31,NNE,16,3.0,4.0,87,0.00,,OVC014,0.00,VWS V14.01,2013-12-25 08:15:00,
2013-12-25 02:20:00,24.7,21.4,30.31,WNW,299,3.0,8.0,87,0.00,,OVC014,0.00,VWS V14.01,2013-12-25 08:20:00,
2013-12-25 02:26:00,24.6,21.3,30.31,NNW,340,4.0,6.0,87,0.00,,OVC014,0.00,VWS V14.01,2013-12-25 08:26:00,
2013-12-25 02:31:00,24.5,20.9,30.31,WNW,292,6.0,8.0,86,0.00,,OVC014,0.00,VWS V14.01,2013-12-25 08:31:00,
2013-12-25 02:36:00,24.4,21.1,30.32,WNW,296,2.0,5.0,87,0.00,,OVC014,0.00,VWS V14.01,2013-12-25 08:36:00,
2013-12-25 02:41:00,24.3,20.7,30.32,WNW,297,2.0,6.0,86,0.00,,OVC014,0.00,VWS V14.01,2013-12-25 08:41:00,
2013-12-25 02:46:00,24.2,20.9,30.32,WNW,299,3.0,4.0,87,0.00,,OVC014,0.00,VWS V14.01,2013-12-25 08:46:00,
2013-12-25 02:51:00,24.1,20.8,30.32,NNW,331,4.0,5.0,87,0.00,,OVC014,0.00,VWS V14.01,2013-12-25 08:51:00,
2013-12-25 02:56:00,24.0,20.4,30.32,WNW,284,6.0,7.0,86,0.00,,OVC014,0.00,VWS V14.01,2013-12-25 08:56:00,
2013-12-25 03:01:00,23.8,20.2,30.32,NNW,336,4.0,7.0,86,0.00,,OVC014,0.00,VWS V14.01,2013-12-25 09:01:00,
2013-12-25 03:06:00,23.7,20.1,30.32,WNW,303,1.0,3.0,86,0.00,,OVC014,0.00,VWS V14.01,2013-12-25 09:06:00,
2013-12-25 03:11:00,23.6,20.0,30.32,NW,320,4.0,4.0,86,0.00,,OVC014,0.00,VWS V14.01,2013-12-25 09:11:00,
2013-12-25 03:16:00,23.5,19.9,30.32,West,275,4.0,5.0,86,0.00,,OVC014,0.00,VWS V14.01,2013-12-25 09:16:00,
2013-12-25 03:21:00,23.4,19.8,30.32,WNW,285,0.0,1.0,86,0.00,,OVC014,0.00,VWS V14.01,2013-12-25 09:21:00,
2013-12-25 03:26:00,23.4,19.8,30.33,NW,316,2.0,6.0,86,0.00,,OVC014,0.00,VWS V14.01,2013-12-25 09:26:00,
2013-12-25 03:31:00,23.3,19.7,30.33,NW,305,4.0,7.0,86,0.00,,OVC014,0.00,VWS V14.01,2013-12-25 09:31:00,
2013-12-25 03:36:00,23.2,19.6,30.33,WNW,287,5.0,6.0,86,0.00,,OVC014,0.00,VWS V14.01,2013-12-25 09:36:00,
2013-12-25 03:41:00,23.0,19.5,30.33,WNW,303,0.0,3.0,86,0.00,,OVC014,0.00,VWS V14.01,2013-12-25 09:41:00,
2013-12-25 03:46:00,23.0,19.5,30.33,WNW,301,3.0,3.0,86,0.00,,OVC014,0.00,VWS V14.01,2013-12-25 09:46:00,
2013-12-25 03:51:00,22.9,19.4,30.32,WNW,299,1.0,2.0,86,0.00,,OVC014,0.00,VWS V14.01,2013-12-25 09:51:00,
2013-12-25 03:56:00,22.7,19.1,30.32,WNW,299,0.0,0.0,86,0.00,,OVC014,0.00,VWS V14.01,2013-12-25 09:56:00,
2013-12-25 04:01:00,22.6,19.0,30.31,WNW,299,0.0,0.0,86,0.00,,OVC014,0.00,VWS V14.01,2013-12-25 10:01:00,
2013-12-25 04:06:00,22.5,18.7,30.31,WNW,299,0.0,0.0,85,0.00,,OVC014,0.00,VWS V14.01,2013-12-25 10:06:00,
2013-12-25 04:11:00,22.2,18.7,30.31,WNW,299,0.0,0.0,86,0.00,,OVC014,0.00,VWS V14.01,2013-12-25 10:11:00,
2013-12-25 04:16:00,21.9,18.4,30.31,WNW,299,1.0,3.0,86,0.00,,OVC014,0.00,VWS V14.01,2013-12-25 10:16:00,
2013-12-25 04:21:00,21.7,18.2,30.31,WNW,299,1.0,2.0,86,0.00,,OVC014,0.00,VWS V14.01,2013-12-25 10:21:00,
2013-12-25 04:26:00,21.5,18.0,30.31,WNW,299,1.0,1.0,86,0.00,,OVC014,0.00,VWS V14.01,2013-12-25 10:26:00,
2013-12-25 04:32:00,21.3,17.8,30.32,WNW,299,0.0,0.0,86,0.00,,OVC014,0.00,VWS V14.01,2013-12-25 10:32:00,
2013-12-25 04:37:00,21.0,17.5,30.32,WNW,299,2.0,2.0,86,0.00,,OVC014,0.00,VWS V14.01,2013-12-25 10:37:00,
2013-12-25 04:42:00,20.6,17.1,30.33,WNW,299,1.0,3.0,86,0.00,,OVC012,0.00,VWS V14.01,2013-12-25 10:42:00,
2013-12-25 04:47:00,20.3,17.1,30.33,WNW,299,2.0,2.0,87,0.00,,OVC012,0.00,VWS V14.01,2013-12-25 10:47:00,
2013-12-25 04:52:00,20.3,17.1,30.33,WNW,297,3.0,3.0,87,0.00,,OVC012,0.00,VWS V14.01,2013-12-25 10:52:00,
2013-12-25 04:57:00,20.3,17.1,30.34,NW,306,3.0,4.0,87,0.00,,OVC012,0.00,VWS V14.01,2013-12-25 10:57:00,
2013-12-25 05:02:00,20.4,17.2,30.33,WNW,301,2.0,5.0,87,0.00,,OVC012,0.00,VWS V14.01,2013-12-25 11:02:00,
2013-12-25 05:07:00,20.4,17.2,30.34,WNW,299,3.0,5.0,87,0.00,,OVC012,0.00,VWS V14.01,2013-12-25 11:07:00,
2013-12-25 05:12:00,20.5,17.2,30.34,NW,314,2.0,3.0,87,0.00,,OVC012,0.00,VWS V14.01,2013-12-25 11:12:00,
2013-12-25 05:17:00,20.6,17.6,30.34,WNW,301,2.0,4.0,88,0.00,,OVC012,0.00,VWS V14.01,2013-12-25 11:17:00,
2013-12-25 05:22:00,20.9,17.9,30.34,NW,314,1.0,5.0,88,0.00,,OVC012,0.00,VWS V14.01,2013-12-25 11:22:00,
2013-12-25 05:27:00,21.1,18.1,30.33,WNW,295,0.0,0.0,88,0.00,,OVC012,0.00,VWS V14.01,2013-12-25 11:27:00,
2013-12-25 05:32:00,21.2,18.2,30.33,NW,309,1.0,3.0,88,0.00,,OVC012,0.00,VWS V14.01,2013-12-25 11:32:00,
2013-12-25 05:37:00,21.3,18.6,30.33,NW,320,1.0,2.0,89,0.00,,OVC012,0.00,VWS V14.01,2013-12-25 11:37:00,
2013-12-25 05:42:00,21.4,18.4,30.33,WNW,302,1.0,4.0,88,0.00,,OVC011,0.00,VWS V14.01,2013-12-25 11:42:00,
2013-12-25 05:47:00,21.4,18.4,30.33,WNW,302,1.0,2.0,88,0.00,,OVC011,0.00,VWS V14.01,2013-12-25 11:47:00,
2013-12-25 05:52:00,21.5,18.8,30.33,WNW,302,0.0,2.0,89,0.00,,OVC011,0.00,VWS V14.01,2013-12-25 11:52:00,
2013-12-25 05:57:00,21.5,18.5,30.33,WNW,302,0.0,2.0,88,0.00,,OVC011,0.00,VWS V14.01,2013-12-25 11:57:00,
2013-12-25 06:02:00,21.5,18.5,30.33,WNW,302,0.0,0.0,88,0.00,,OVC011,0.00,VWS V14.01,2013-12-25 12:02:00,
2013-12-25 06:07:00,21.5,18.5,30.32,WNW,302,0.0,1.0,88,0.00,,OVC011,0.00,VWS V14.01,2013-12-25 12:07:00,
2013-12-25 06:12:00,21.5,18.5,30.32,WNW,302,0.0,0.0,88,0.00,,OVC011,0.00,VWS V14.01,2013-12-25 12:12:00,
2013-12-25 06:17:00,21.5,18.5,30.32,WNW,302,0.0,0.0,88,0.00,,OVC011,0.00,VWS V14.01,2013-12-25 12:17:00,
2013-12-25 06:22:00,21.5,18.5,30.32,WNW,302,0.0,0.0,88,0.00,,OVC011,0.00,VWS V14.01,2013-12-25 12:22:00,
2013-12-25 06:27:00,21.5,18.5,30.32,WNW,302,2.0,2.0,88,0.00,,OVC011,0.00,VWS V14.01,2013-12-25 12:27:00,
2013-12-25 06:32:00,21.3,18.3,30.32,WNW,302,1.0,2.0,88,0.00,,OVC011,0.00,VWS V14.01,2013-12-25 12:32:00,
2013-12-25 06:37:00,21.3,18.6,30.32,SW,233,2.0,3.0,89,0.00,,OVC011,0.00,VWS V14.01,2013-12-25 12:37:00,
2013-12-25 06:42:00,21.2,18.5,30.32,SW,232,0.0,1.0,89,0.00,,OVC011,0.00,VWS V14.01,2013-12-25 12:42:00,
2013-12-25 06:47:00,21.2,18.5,30.32,SW,232,1.0,2.0,89,0.00,,OVC011,0.00,VWS V14.01,2013-12-25 12:47:00,
2013-12-25 06:52:00,21.1,18.4,30.31,SSW,204,1.0,2.0,89,0.00,,SCT011,0.00,VWS V14.01,2013-12-25 12:52:00,
2013-12-25 06:57:00,21.1,18.4,30.32,SSW,204,2.0,2.0,89,0.00,,SCT011,0.00,VWS V14.01,2013-12-25 12:57:00,
2013-12-25 07:02:00,21.1,18.4,30.31,SSW,205,2.0,2.0,89,0.00,,SCT011,0.00,VWS V14.01,2013-12-25 13:02:00,
2013-12-25 07:07:00,21.1,18.4,30.31,SSW,204,1.0,3.0,89,0.00,,SCT011,0.00,VWS V14.01,2013-12-25 13:07:00,
2013-12-25 07:12:00,21.1,18.4,30.31,SSW,204,3.0,3.0,89,0.00,,SCT011,0.00,VWS V14.01,2013-12-25 13:12:00,
2013-12-25 07:17:00,21.0,18.3,30.31,SSW,201,5.0,5.0,89,0.00,,SCT011,0.00,VWS V14.01,2013-12-25 13:17:00,
2013-12-25 07:22:00,21.1,18.6,30.31,SSW,196,1.0,3.0,90,0.00,,SCT011,0.00,VWS V14.01,2013-12-25 13:22:00,
2013-12-25 07:27:00,21.0,18.3,30.31,SSW,201,3.0,3.0,89,0.00,,SCT011,0.00,VWS V14.01,2013-12-25 13:27:00,
2013-12-25 07:32:00,20.9,18.4,30.31,SSW,204,2.0,4.0,90,0.00,,SCT011,0.00,VWS V14.01,2013-12-25 13:32:00,
2013-12-25 07:37:00,21.1,18.6,30.31,SSW,208,2.0,3.0,90,0.00,,SCT011,0.00,VWS V14.01,2013-12-25 13:37:00,
2013-12-25 07:42:00,21.1,18.6,30.31,SW,236,4.0,5.0,90,0.00,,FEW010,0.00,VWS V14.01,2013-12-25 13:42:00,
2013-12-25 07:47:00,21.3,18.8,30.31,SSW,211,5.0,5.0,90,0.00,,FEW010,0.00,VWS V14.01,2013-12-25 13:47:00,
2013-12-25 07:52:00,21.3,18.8,30.31,SSW,193,3.0,3.0,90,0.00,,FEW010,0.00,VWS V14.01,2013-12-25 13:52:00,
2013-12-25 07:57:00,21.0,18.5,30.31,SSW,197,2.0,3.0,90,0.00,,FEW010,0.00,VWS V14.01,2013-12-25 13:57:00,
2013-12-25 08:02:00,20.9,18.7,30.30,SW,222,4.0,4.0,91,0.00,,FEW010,0.00,VWS V14.01,2013-12-25 14:02:00,
2013-12-25 08:08:00,20.9,18.7,30.30,SW,219,3.0,4.0,91,0.00,,FEW010,0.00,VWS V14.01,2013-12-25 14:08:00,
2013-12-25 08:13:00,20.9,18.7,30.31,SW,226,3.0,5.0,91,0.00,,FEW010,0.00,VWS V14.01,2013-12-25 14:13:00,
2013-12-25 08:18:00,21.1,18.9,30.31,SW,235,3.0,3.0,91,0.00,,FEW010,0.00,VWS V14.01,2013-12-25 14:18:00,
2013-12-25 08:23:00,21.2,19.0,30.31,SW,235,2.0,3.0,91,0.00,,FEW010,0.00,VWS V14.01,2013-12-25 14:23:00,
2013-12-25 08:28:00,21.3,19.3,30.30,SSW,204,5.0,5.0,92,0.00,,FEW010,0.00,VWS V14.01,2013-12-25 14:28:00,
2013-12-25 08:33:00,21.2,19.0,30.31,WSW,237,5.0,5.0,91,0.00,,FEW010,0.00,VWS V14.01,2013-12-25 14:33:00,
2013-12-25 08:38:00,21.5,19.5,30.31,SW,235,4.0,4.0,92,0.00,,FEW010,0.00,VWS V14.01,2013-12-25 14:38:00,
2013-12-25 08:43:00,21.9,19.9,30.31,WSW,245,3.0,4.0,92,0.00,,FEW120,0.00,VWS V14.01,2013-12-25 14:43:00,
2013-12-25 08:48:00,22.3,20.3,30.31,SW,231,5.0,6.0,92,0.00,,FEW120,0.00,VWS V14.01,2013-12-25 14:48:00,
2013-12-25 08:53:00,22.8,20.8,30.32,WSW,256,5.0,7.0,92,0.00,,FEW120,0.00,VWS V14.01,2013-12-25 14:53:00,
2013-12-25 08:58:00,23.3,21.1,30.31,SW,232,11.0,11.0,91,0.00,,FEW120,0.00,VWS V14.01,2013-12-25 14:58:00,
2013-12-25 09:03:00,23.5,21.3,30.31,WSW,238,7.0,8.0,91,0.00,,FEW120,0.00,VWS V14.01,2013-12-25 15:03:00,
2013-12-25 09:08:00,23.7,21.2,30.30,WSW,237,5.0,8.0,90,0.00,,FEW120,0.00,VWS V14.01,2013-12-25 15:08:00,
2013-12-25 09:13:00,24.0,21.5,30.30,SW,231,7.0,7.0,90,0.00,,FEW120,0.00,VWS V14.01,2013-12-25 15:13:00,
2013-12-25 09:18:00,24.3,21.5,30.30,WSW,247,6.0,7.0,89,0.00,,FEW120,0.00,VWS V14.01,2013-12-25 15:18:00,
2013-12-25 09:23:00,24.6,21.8,30.30,WSW,247,8.0,10.0,89,0.00,,FEW120,0.00,VWS V14.01,2013-12-25 15:23:00,
2013-12-25 09:28:00,24.7,21.7,30.30,West,266,6.0,12.0,88,0.00,,FEW120,0.00,VWS V14.01,2013-12-25 15:28:00,
2013-12-25 09:33:00,24.6,21.6,30.30,WSW,254,6.0,9.0,88,0.00,,FEW120,0.00,VWS V14.01,2013-12-25 15:33:00,
2013-12-25 09:38:00,24.5,21.5,30.30,WSW,241,8.0,8.0,88,0.00,,FEW120,0.00,VWS V14.01,2013-12-25 15:38:00,
2013-12-25 09:43:00,24.4,21.4,30.30,WSW,251,8.0,13.0,88,0.00,,FEW250,0.00,VWS V14.01,2013-12-25 15:43:00,
2013-12-25 09:48:00,24.3,21.3,30.31,SW,233,12.0,13.0,88,0.00,,FEW250,0.00,VWS V14.01,2013-12-25 15:48:00,
2013-12-25 09:53:00,24.3,21.0,30.30,WSW,248,8.0,12.0,87,0.00,,FEW250,0.00,VWS V14.01,2013-12-25 15:53:00,
2013-12-25 09:58:00,24.5,21.2,30.30,WSW,248,12.0,13.0,87,0.00,,FEW250,0.00,VWS V14.01,2013-12-25 15:58:00,
2013-12-25 10:03:00,24.5,21.2,30.31,WSW,252,6.0,10.0,87,0.00,,FEW250,0.00,VWS V14.01,2013-12-25 16:03:00,
2013-12-25 10:08:00,24.7,21.1,30.31,WSW,243,9.0,10.0,86,0.00,,FEW250,0.00,VWS V14.01,2013-12-25 16:08:00,
2013-12-25 10:13:00,24.9,21.3,30.31,WSW,258,6.0,10.0,86,0.00,,FEW250,0.00,VWS V14.01,2013-12-25 16:13:00,
2013-12-25 10:18:00,25.2,21.6,30.31,WSW,253,9.0,10.0,86,0.00,,FEW250,0.00,VWS V14.01,2013-12-25 16:18:00,
2013-12-25 10:23:00,25.5,21.6,30.31,WNW,287,3.0,8.0,85,0.00,,FEW250,0.00,VWS V14.01,2013-12-25 16:23:00,
2013-12-25 10:28:00,25.8,21.9,30.31,WSW,255,8.0,8.0,85,0.00,,FEW250,0.00,VWS V14.01,2013-12-25 16:28:00,
2013-12-25 10:33:00,26.1,21.9,30.31,West,260,2.0,5.0,84,0.00,,FEW250,0.00,VWS V14.01,2013-12-25 16:33:00,
2013-12-25 10:38:00,26.3,22.1,30.31,WSW,251,3.0,10.0,84,0.00,,FEW250,0.00,VWS V14.01,2013-12-25 16:38:00,
2013-12-25 10:43:00,26.6,22.1,30.31,WSW,247,8.0,13.0,83,0.00,,FEW250,0.00,VWS V14.01,2013-12-25 16:43:00,
2013-12-25 10:48:00,26.8,22.0,30.31,WSW,256,6.0,11.0,82,0.00,,FEW250,0.00,VWS V14.01,2013-12-25 16:48:00,
2013-12-25 10:53:00,27.1,22.4,30.31,WNW,293,2.0,4.0,82,0.00,,FEW250,0.00,VWS V14.01,2013-12-25 16:53:00,
2013-12-25 10:58:00,27.7,22.9,30.31,West,262,9.0,9.0,82,0.00,,FEW250,0.00,VWS V14.01,2013-12-25 16:58:00,
2013-12-25 11:03:00,28.1,23.0,30.31,WSW,249,6.0,6.0,81,0.00,,FEW250,0.00,VWS V14.01,2013-12-25 17:03:00,
2013-12-25 11:08:00,28.4,23.0,30.31,WSW,246,7.0,10.0,80,0.00,,FEW250,0.00,VWS V14.01,2013-12-25 17:08:00,
2013-12-25 11:13:00,28.7,23.3,30.31,WSW,258,4.0,6.0,80,0.00,,FEW250,0.00,VWS V14.01,2013-12-25 17:13:00,
2013-12-25 11:18:00,29.3,23.9,30.31,West,262,7.0,8.0,80,0.00,,FEW250,0.00,VWS V14.01,2013-12-25 17:18:00,
2013-12-25 11:23:00,30.0,24.0,30.31,West,278,4.0,5.0,78,0.00,,FEW250,0.00,VWS V14.01,2013-12-25 17:23:00,
2013-12-25 11:28:00,30.6,24.6,30.31,West,269,4.0,9.0,78,0.00,,FEW250,0.00,VWS V14.01,2013-12-25 17:28:00,
2013-12-25 11:33:00,30.9,24.5,30.30,WSW,251,4.0,4.0,77,0.00,,FEW120,0.00,VWS V14.01,2013-12-25 17:33:00,
2013-12-25 11:38:00,31.1,24.8,30.30,WSW,255,9.0,9.0,77,0.00,,FEW120,0.00,VWS V14.01,2013-12-25 17:38:00,
2013-12-25 11:43:00,31.4,25.0,30.30,WSW,242,6.0,8.0,77,0.00,,FEW120,0.00,VWS V14.01,2013-12-25 17:43:00,
2013-12-25 11:48:00,31.8,25.1,30.30,WSW,249,5.0,5.0,76,0.00,,FEW120,0.00,VWS V14.01,2013-12-25 17:48:00,
2013-12-25 11:53:00,32.3,25.6,30.30,West,260,4.0,7.0,76,0.00,,FEW120,0.00,VWS V14.01,2013-12-25 17:53:00,
2013-12-25 11:58:00,32.6,25.6,30.30,WSW,254,7.0,7.0,75,0.00,,FEW120,0.00,VWS V14.01,2013-12-25 17:58:00,
2013-12-25 12:03:00,33.0,26.0,30.29,West,266,4.0,5.0,75,0.00,,FEW120,0.00,VWS V14.01,2013-12-25 18:03:00,
2013-12-25 12:08:00,33.7,26.3,30.29,West,262,3.0,6.0,74,0.00,,FEW120,0.00,VWS V14.01,2013-12-25 18:08:00,
2013-12-25 12:14:00,34.2,26.8,30.29,SW,224,4.0,4.0,74,0.00,,FEW120,0.00,VWS V14.01,2013-12-25 18:14:00,
2013-12-25 12:19:00,34.8,27.0,30.29,WSW,258,1.0,4.0,73,0.00,,FEW120,0.00,VWS V14.01,2013-12-25 18:19:00,
2013-12-25 12:24:00,35.3,27.5,30.29,WSW,241,4.0,5.0,73,0.00,,FEW120,0.00,VWS V14.01,2013-12-25 18:24:00,
2013-12-25 12:29:00,36.0,28.2,30.29,WSW,249,4.0,5.0,73,0.00,,FEW120,0.00,VWS V14.01,2013-12-25 18:29:00,
2013-12-25 12:34:00,36.8,29.0,30.28,WNW,294,5.0,5.0,73,0.00,,FEW120,0.00,VWS V14.01,2013-12-25 18:34:00,
2013-12-25 12:39:00,38.2,29.6,30.28,WNW,285,5.0,7.0,71,0.00,,FEW120,0.00,VWS V14.01,2013-12-25 18:39:00,
2013-12-25 12:44:00,38.9,29.6,30.28,WNW,295,7.0,7.0,69,0.00,,SCT034,0.00,VWS V14.01,2013-12-25 18:44:00,
2013-12-25 12:49:00,39.3,30.0,30.28,West,263,8.0,8.0,69,0.00,,SCT034,0.00,VWS V14.01,2013-12-25 18:49:00,
2013-12-25 12:54:00,39.8,30.1,30.27,WNW,285,5.0,8.0,68,0.00,,SCT034,0.00,VWS V14.01,2013-12-25 18:54:00,
2013-12-25 12:59:00,40.2,30.1,30.27,West,281,8.0,12.0,67,0.00,,SCT034,0.00,VWS V14.01,2013-12-25 18:59:00,
2013-12-25 13:04:00,40.4,30.3,30.27,WNW,282,10.0,11.0,67,0.00,,SCT034,0.00,VWS V14.01,2013-12-25 19:04:00,
2013-12-25 13:09:00,40.6,30.1,30.27,NNW,332,5.0,9.0,66,0.00,,SCT034,0.00,VWS V14.01,2013-12-25 19:09:00,
2013-12-25 13:14:00,41.0,30.1,30.27,NW,304,7.0,8.0,65,0.00,,SCT034,0.00,VWS V14.01,2013-12-25 19:14:00,
2013-12-25 13:19:00,41.1,30.2,30.27,NW,322,6.0,10.0,65,0.00,,SCT034,0.00,VWS V14.01,2013-12-25 19:19:00,
2013-12-25 13:24:00,41.2,30.0,30.27,NW,317,6.0,7.0,64,0.00,,SCT034,0.00,VWS V14.01,2013-12-25 19:24:00,
2013-12-25 13:29:00,41.2,29.6,30.27,NW,323,4.0,7.0,63,0.00,,SCT034,0.00,VWS V14.01,2013-12-25 19:29:00,
2013-12-25 13:34:00,41.0,29.0,30.27,WNW,301,7.0,8.0,62,0.00,,SCT034,0.00,VWS V14.01,2013-12-25 19:34:00,
2013-12-25 13:39:00,41.0,27.8,30.27,NW,314,7.0,12.0,59,0.00,,SCT034,0.00,VWS V14.01,2013-12-25 19:39:00,
2013-12-25 13:44:00,41.1,27.9,30.27,NW,324,12.0,17.0,59,0.00,,BKN047,0.00,VWS V14.01,2013-12-25 19:44:00,
2013-12-25 13:49:00,40.6,27.0,30.27,NNW,341,10.0,13.0,58,0.00,,BKN047,0.00,VWS V14.01,2013-12-25 19:49:00,
2013-12-25 13:54:00,40.6,27.4,30.27,North,350,13.0,13.0,59,0.00,,BKN047,0.00,VWS V14.01,2013-12-25 19:54:00,
2013-12-25 13:59:00,40.7,27.5,30.27,NW,318,6.0,13.0,59,0.00,,BKN047,0.00,VWS V14.01,2013-12-25 19:59:00,
2013-12-25 14:04:00,40.8,27.6,30.27,WNW,297,7.0,11.0,59,0.00,,BKN047,0.00,VWS V14.01,2013-12-25 20:04:00,
2013-12-25 14:09:00,40.7,27.5,30.27,North,349,6.0,7.0,59,0.00,,BKN047,0.00,VWS V14.01,2013-12-25 20:09:00,
2013-12-25 14:14:00,40.8,27.6,30.27,North,349,4.0,10.0,59,0.00,,BKN047,0.00,VWS V14.01,2013-12-25 20:14:00,
2013-12-25 14:19:00,40.8,27.2,30.27,NW,314,7.0,12.0,58,0.00,,BKN047,0.00,VWS V14.01,2013-12-25 20:19:00,
2013-12-25 14:24:00,40.6,26.6,30.28,WNW,303,10.0,10.0,57,0.00,,BKN047,0.00,VWS V14.01,2013-12-25 20:24:00,
2013-12-25 14:29:00,40.3,26.7,30.28,West,271,5.0,9.0,58,0.00,,BKN047,0.00,VWS V14.01,2013-12-25 20:29:00,
2013-12-25 14:34:00,40.0,26.8,30.28,NNW,341,7.0,8.0,59,0.00,,BKN055,0.00,VWS V14.01,2013-12-25 20:34:00,
2013-12-25 14:39:00,39.8,26.7,30.28,WNW,300,4.0,7.0,59,0.00,,BKN055,0.00,VWS V14.01,2013-12-25 20:39:00,
2013-12-25 14:44:00,39.7,27.0,30.29,NNW,327,4.0,7.0,60,0.00,,BKN055,0.00,VWS V14.01,2013-12-25 20:44:00,
2013-12-25 14:49:00,39.7,27.0,30.29,WNW,302,3.0,6.0,60,0.00,,BKN055,0.00,VWS V14.01,2013-12-25 20:49:00,
2013-12-25 14:54:00,39.6,26.5,30.29,NW,318,6.0,12.0,59,0.00,,BKN055,0.00,VWS V14.01,2013-12-25 20:54:00,
2013-12-25 14:59:00,39.6,26.9,30.29,NW,322,2.0,6.0,60,0.00,,BKN055,0.00,VWS V14.01,2013-12-25 20:59:00,
2013-12-25 15:04:00,39.5,26.8,30.29,NW,318,4.0,9.0,60,0.00,,BKN055,0.00,VWS V14.01,2013-12-25 21:04:00,
2013-12-25 15:09:00,39.6,26.5,30.29,WNW,297,4.0,9.0,59,0.00,,BKN055,0.00,VWS V14.01,2013-12-25 21:09:00,
2013-12-25 15:14:00,39.8,26.7,30.29,WNW,296,8.0,9.0,59,0.00,,BKN055,0.00,VWS V14.01,2013-12-25 21:14:00,
2013-12-25 15:19:00,40.1,26.5,30.29,NW,316,3.0,6.0,58,0.00,,BKN055,0.00,VWS V14.01,2013-12-25 21:19:00,
2013-12-25 15:24:00,40.2,26.6,30.29,NW,308,5.0,9.0,58,0.00,,BKN055,0.00,VWS V14.01,2013-12-25 21:24:00,
2013-12-25 15:29:00,40.0,26.4,30.30,North,354,4.0,9.0,58,0.00,,BKN055,0.00,VWS V14.01,2013-12-25 21:29:00,
2013-12-25 15:34:00,40.0,26.0,30.30,NW,318,6.0,8.0,57,0.00,,BKN055,0.00,VWS V14.01,2013-12-25 21:34:00,
2013-12-25 15:39:00,39.8,25.8,30.30,WNW,283,5.0,7.0,57,0.00,,BKN055,0.00,VWS V14.01,2013-12-25 21:39:00,
2013-12-25 15:44:00,39.7,26.6,30.30,NW,312,4.0,7.0,59,0.00,,BKN044,0.00,VWS V14.01,2013-12-25 21:44:00,
2013-12-25 15:49:00,39.6,26.1,30.30,NW,310,5.0,11.0,58,0.00,,BKN044,0.00,VWS V14.01,2013-12-25 21:49:00,
2013-12-25 15:54:00,39.6,26.1,30.31,WNW,283,2.0,5.0,58,0.00,,BKN044,0.00,VWS V14.01,2013-12-25 21:54:00,
2013-12-25 15:59:00,39.4,25.9,30.31,North,359,6.0,6.0,58,0.00,,BKN044,0.00,VWS V14.01,2013-12-25 21:59:00,
2013-12-25 16:04:00,39.2,26.1,30.31,WNW,294,5.0,11.0,59,0.00,,BKN044,0.00,VWS V14.01,2013-12-25 22:04:00,
2013-12-25 16:09:00,39.2,26.1,30.31,NW,310,5.0,7.0,59,0.00,,BKN044,0.00,VWS V14.01,2013-12-25 22:09:00,
2013-12-25 16:14:00,39.1,26.0,30.31,WNW,303,2.0,7.0,59,0.00,,BKN044,0.00,VWS V14.01,2013-12-25 22:14:00,
2013-12-25 16:19:00,39.0,26.3,30.31,NNW,328,4.0,5.0,60,0.00,,BKN044,0.00,VWS V14.01,2013-12-25 22:19:00,
2013-12-25 16:24:00,38.9,26.6,30.31,North,4,2.0,6.0,61,0.00,,BKN044,0.00,VWS V14.01,2013-12-25 22:24:00,
2013-12-25 16:29:00,38.5,26.6,30.32,NNW,328,2.0,4.0,62,0.00,,BKN044,0.00,VWS V14.01,2013-12-25 22:29:00,
2013-12-25 16:35:00,38.1,26.6,30.32,NW,324,0.0,3.0,63,0.00,,BKN044,0.00,VWS V14.01,2013-12-25 22:35:00,
2013-12-25 16:40:00,37.7,26.6,30.32,NNW,337,3.0,4.0,64,0.00,,BKN044,0.00,VWS V14.01,2013-12-25 22:40:00,
2013-12-25 16:45:00,37.4,26.7,30.32,WNW,300,3.0,3.0,65,0.00,,BKN047,0.00,VWS V14.01,2013-12-25 22:45:00,
2013-12-25 16:50:00,37.2,26.9,30.32,North,350,5.0,5.0,66,0.00,,BKN047,0.00,VWS V14.01,2013-12-25 22:50:00,
2013-12-25 16:55:00,37.0,26.7,30.32,WNW,295,2.0,3.0,66,0.00,,BKN047,0.00,VWS V14.01,2013-12-25 22:55:00,
2013-12-25 17:00:00,37.0,27.1,30.32,NW,316,2.0,5.0,67,0.00,,BKN047,0.00,VWS V14.01,2013-12-25 23:00:00,
2013-12-25 17:05:00,37.0,27.1,30.32,WNW,301,0.0,3.0,67,0.00,,BKN047,0.00,VWS V14.01,2013-12-25 23:05:00,
2013-12-25 17:10:00,36.9,27.0,30.32,NW,315,3.0,4.0,67,0.00,,BKN047,0.00,VWS V14.01,2013-12-25 23:10:00,
2013-12-25 17:15:00,36.8,27.2,30.32,NW,314,2.0,4.0,68,0.00,,BKN047,0.00,VWS V14.01,2013-12-25 23:15:00,
2013-12-25 17:20:00,36.8,27.2,30.32,NNW,336,3.0,4.0,68,0.00,,BKN047,0.00,VWS V14.01,2013-12-25 23:20:00,
2013-12-25 17:25:00,36.8,27.2,30.32,NW,311,4.0,5.0,68,0.00,,BKN047,0.00,VWS V14.01,2013-12-25 23:25:00,
2013-12-25 17:30:00,36.9,27.3,30.32,NW,318,2.0,4.0,68,0.00,,BKN047,0.00,VWS V14.01,2013-12-25 23:30:00,
2013-12-25 17:35:00,36.9,27.0,30.32,NW,314,1.0,4.0,67,0.00,,BKN046,0.00,VWS V14.01,2013-12-25 23:35:00,
2013-12-25 17:40:00,36.9,27.0,30.32,NW,319,4.0,6.0,67,0.00,,BKN046,0.00,VWS V14.01,2013-12-25 23:40:00,
2013-12-25 17:45:00,36.8,26.9,30.33,NNW,332,4.0,5.0,67,0.00,,BKN046,0.00,VWS V14.01,2013-12-25 23:45:00,
2013-12-25 17:50:00,36.6,26.7,30.33,NW,314,3.0,5.0,67,0.00,,BKN046,0.00,VWS V14.01,2013-12-25 23:50:00,
2013-12-25 17:55:00,36.5,26.6,30.33,NW,321,5.0,7.0,67,0.00,,BKN046,0.00,VWS V14.01,2013-12-25 23:55:00,
2013-12-25 18:00:00,36.2,26.3,30.33,NW,314,4.0,6.0,67,0.00,,BKN046,0.00,VWS V14.01,2013-12-26 00:00:00,
2013-12-25 18:05:00,36.0,26.1,30.33,NW,320,4.0,6.0,67,0.00,,BKN046,0.00,VWS V14.01,2013-12-26 00:05:00,
2013-12-25 18:10:00,35.6,25.7,30.33,NW,316,4.0,6.0,67,0.00,,BKN046,0.00,VWS V14.01,2013-12-26 00:10:00,
2013-12-25 18:15:00,35.4,25.5,30.33,NW,305,5.0,6.0,67,0.00,,FEW050,0.00,VWS V14.01,2013-12-26 00:15:00,
2013-12-25 18:20:00,35.2,25.4,30.33,NW,324,5.0,7.0,67,0.00,,FEW050,0.00,VWS V14.01,2013-12-26 00:20:00,
2013-12-25 18:25:00,35.0,25.2,30.33,WNW,292,3.0,5.0,67,0.00,,FEW050,0.00,VWS V14.01,2013-12-26 00:25:00,
2013-12-25 18:30:00,34.8,25.0,30.33,NNW,336,3.0,4.0,67,0.00,,FEW050,0.00,VWS V14.01,2013-12-26 00:30:00,
2013-12-25 18:35:00,34.6,25.1,30.33,WNW,297,2.0,3.0,68,0.00,,FEW050,0.00,VWS V14.01,2013-12-26 00:35:00,
2013-12-25 18:40:00,34.4,25.0,30.34,WNW,295,4.0,4.0,68,0.00,,FEW050,0.00,VWS V14.01,2013-12-26 00:40:00,
2013-12-25 18:45:00,34.2,25.1,30.34,NW,315,3.0,4.0,69,0.00,,FEW050,0.00,VWS V14.01,2013-12-26 00:45:00,
2013-12-25 18:50:00,33.9,24.8,30.34,WNW,292,2.0,4.0,69,0.00,,FEW050,0.00,VWS V14.01,2013-12-26 00:50:00,
2013-12-25 18:55:00,33.8,24.7,30.34,NW,304,1.0,3.0,69,0.00,,FEW050,0.00,VWS V14.01,2013-12-26 00:55:00,
2013-12-25 19:00:00,33.5,24.8,30.35,WNW,293,4.0,4.0,70,0.00,,FEW050,0.00,VWS V14.01,2013-12-26 01:00:00,
2013-12-25 19:05:00,33.3,24.6,30.34,WNW,292,2.0,4.0,70,0.00,,FEW050,0.00,VWS V14.01,2013-12-26 01:05:00,
2013-12-25 19:10:00,33.2,24.5,30.34,NW,305,1.0,3.0,70,0.00,,FEW050,0.00,VWS V14.01,2013-12-26 01:10:00,
2013-12-25 19:15:00,32.9,24.2,30.35,WNW,299,2.0,3.0,70,0.00,,FEW050,0.00,VWS V14.01,2013-12-26 01:15:00,
2013-12-25 19:20:00,32.8,24.5,30.35,WNW,301,2.0,3.0,71,0.00,,FEW050,0.00,VWS V14.01,2013-12-26 01:20:00,
2013-12-25 19:25:00,32.8,24.5,30.35,WNW,295,2.0,3.0,71,0.00,,FEW050,0.00,VWS V14.01,2013-12-26 01:25:00,
2013-12-25 19:30:00,32.6,24.2,30.36,WNW,284,1.0,3.0,71,0.00,,FEW050,0.00,VWS V14.01,2013-12-26 01:30:00,
2013-12-25 19:35:00,32.5,24.2,30.36,WNW,291,3.0,3.0,71,0.00,,CLR,0.00,VWS V14.01,2013-12-26 01:35:00,
2013-12-25 19:40:00,32.3,24.0,30.36,WNW,300,1.0,3.0,71,0.00,,CLR,0.00,VWS V14.01,2013-12-26 01:40:00,
2013-12-25 19:45:00,32.0,24.0,30.36,WNW,303,1.0,3.0,72,0.00,,CLR,0.00,VWS V14.01,2013-12-26 01:45:00,
2013-12-25 19:50:00,31.9,23.9,30.36,WNW,293,3.0,3.0,72,0.00,,CLR,0.00,VWS V14.01,2013-12-26 01:50:00,
2013-12-25 19:55:00,31.7,23.7,30.36,WNW,295,1.0,3.0,72,0.00,,CLR,0.00,VWS V14.01,2013-12-26 01:55:00,
2013-12-25 20:00:00,31.4,23.8,30.36,NW,308,3.0,4.0,73,0.00,,CLR,0.00,VWS V14.01,2013-12-26 02:00:00,
2013-12-25 20:05:00,31.4,23.8,30.36,WNW,292,4.0,4.0,73,0.00,,CLR,0.00,VWS V14.01,2013-12-26 02:05:00,
2013-12-25 20:10:00,31.4,23.8,30.36,WNW,294,2.0,3.0,73,0.00,,CLR,0.00,VWS V14.01,2013-12-26 02:10:00,
2013-12-25 20:15:00,31.4,23.8,30.35,WNW,292,2.0,3.0,73,0.00,,CLR,0.00,VWS V14.01,2013-12-26 02:15:00,
2013-12-25 20:20:00,31.2,23.6,30.35,WNW,291,2.0,3.0,73,0.00,,CLR,0.00,VWS V14.01,2013-12-26 02:20:00,
2013-12-25 20:25:00,30.8,23.2,30.35,West,268,2.0,3.0,73,0.00,,CLR,0.00,VWS V14.01,2013-12-26 02:25:00,
2013-12-25 20:30:00,30.5,23.2,30.35,WNW,282,2.0,3.0,74,0.00,,CLR,0.00,VWS V14.01,2013-12-26 02:30:00,
2013-12-25 20:36:00,30.6,23.3,30.35,WNW,290,3.0,3.0,74,0.00,,CLR,0.00,VWS V14.01,2013-12-26 02:36:00,
2013-12-25 20:41:00,30.7,23.4,30.35,WNW,291,2.0,2.0,74,0.00,,CLR,0.00,VWS V14.01,2013-12-26 02:41:00,
2013-12-25 20:46:00,30.6,23.3,30.34,WNW,290,2.0,3.0,74,0.00,,CLR,0.00,VWS V14.01,2013-12-26 02:46:00,
2013-12-25 20:51:00,30.4,23.4,30.34,WNW,290,1.0,2.0,75,0.00,,CLR,0.00,VWS V14.01,2013-12-26 02:51:00,
2013-12-25 20:56:00,30.1,23.1,30.35,WNW,287,3.0,3.0,75,0.00,,CLR,0.00,VWS V14.01,2013-12-26 02:56:00,
2013-12-25 21:01:00,29.7,22.8,30.34,WNW,287,1.0,2.0,75,0.00,,CLR,0.00,VWS V14.01,2013-12-26 03:01:00,
2013-12-25 21:06:00,29.4,22.8,30.34,WNW,287,1.0,2.0,76,0.00,,CLR,0.00,VWS V14.01,2013-12-26 03:06:00,
2013-12-25 21:11:00,29.2,22.9,30.34,West,268,1.0,3.0,77,0.00,,CLR,0.00,VWS V14.01,2013-12-26 03:11:00,
2013-12-25 21:16:00,29.0,22.7,30.34,West,260,3.0,3.0,77,0.00,,CLR,0.00,VWS V14.01,2013-12-26 03:16:00,
2013-12-25 21:21:00,28.7,22.4,30.34,West,260,3.0,3.0,77,0.00,,CLR,0.00,VWS V14.01,2013-12-26 03:21:00,
2013-12-25 21:26:00,28.5,22.5,30.34,West,260,2.0,3.0,78,0.00,,CLR,0.00,VWS V14.01,2013-12-26 03:26:00,
2013-12-25 21:31:00,28.6,22.6,30.34,West,260,1.0,2.0,78,0.00,,CLR,0.00,VWS V14.01,2013-12-26 03:31:00,
2013-12-25 21:36:00,28.6,22.6,30.34,West,260,2.0,3.0,78,0.00,,CLR,0.00,VWS V14.01,2013-12-26 03:36:00,
2013-12-25 21:41:00,28.6,22.6,30.34,WSW,258,2.0,3.0,78,0.00,,CLR,0.00,VWS V14.01,2013-12-26 03:41:00,
2013-12-25 21:46:00,28.5,22.5,30.33,WSW,258,3.0,3.0,78,0.00,,CLR,0.00,VWS V14.01,2013-12-26 03:46:00,
2013-12-25 21:51:00,28.4,22.4,30.33,WSW,258,1.0,2.0,78,0.00,,CLR,0.00,VWS V14.01,2013-12-26 03:51:00,
2013-12-25 21:56:00,28.4,22.7,30.33,WSW,258,1.0,2.0,79,0.00,,CLR,0.00,VWS V14.01,2013-12-26 03:56:00,
2013-12-25 22:01:00,28.1,22.4,30.33,WSW,257,4.0,4.0,79,0.00,,CLR,0.00,VWS V14.01,2013-12-26 04:01:00,
2013-12-25 22:06:00,28.0,22.3,30.33,WSW,256,3.0,4.0,79,0.00,,CLR,0.00,VWS V14.01,2013-12-26 04:06:00,
2013-12-25 22:11:00,27.8,22.1,30.33,WSW,256,0.0,1.0,79,0.00,,CLR,0.00,VWS V14.01,2013-12-26 04:11:00,
2013-12-25 22:16:00,27.8,22.4,30.33,WSW,256,0.0,0.0,80,0.00,,CLR,0.00,VWS V14.01,2013-12-26 04:16:00,
2013-12-25 22:21:00,27.9,22.5,30.33,WSW,256,3.0,3.0,80,0.00,,CLR,0.00,VWS V14.01,2013-12-26 04:21:00,
2013-12-25 22:26:00,28.0,22.6,30.32,WSW,246,2.0,3.0,80,0.00,,CLR,0.00,VWS V14.01,2013-12-26 04:26:00,
2013-12-25 22:31:00,28.1,22.7,30.33,WSW,247,3.0,3.0,80,0.00,,CLR,0.00,VWS V14.01,2013-12-26 04:31:00,
2013-12-25 22:36:00,28.1,22.7,30.32,WSW,253,3.0,4.0,80,0.00,,CLR,0.00,VWS V14.01,2013-12-26 04:36:00,
2013-12-25 22:41:00,28.3,22.9,30.32,WSW,250,2.0,3.0,80,0.00,,CLR,0.00,VWS V14.01,2013-12-26 04:41:00,
2013-12-25 22:46:00,28.3,22.9,30.32,WSW,245,2.0,3.0,80,0.00,,CLR,0.00,VWS V14.01,2013-12-26 04:46:00,
2013-12-25 22:51:00,28.0,22.3,30.32,WSW,243,2.0,3.0,79,0.00,,CLR,0.00,VWS V14.01,2013-12-26 04:51:00,
2013-12-25 22:56:00,27.2,21.6,30.32,SW,221,4.0,4.0,79,0.00,,CLR,0.00,VWS V14.01,2013-12-26 04:56:00,
2013-12-25 23:01:00,26.4,20.8,30.32,SSW,212,1.0,3.0,79,0.00,,CLR,0.00,VWS V14.01,2013-12-26 05:01:00,
2013-12-25 23:02:00,26.1,20.8,30.32,SSW,212,2.0,3.0,80,0.00,,CLR,0.00,VWS V14.01,2013-12-26 05:02:00,
2013-12-25 23:07:00,25.5,20.8,30.32,SW,219,3.0,4.0,82,0.00,,CLR,0.00,VWS V14.01,2013-12-26 05:07:00,
2013-12-25 23:12:00,25.8,21.4,30.32,SW,233,3.0,4.0,83,0.00,,CLR,0.00,VWS V14.01,2013-12-26 05:12:00,
2013-12-25 23:17:00,26.1,21.6,30.32,SW,233,3.0,3.0,83,0.00,,CLR,0.00,VWS V14.01,2013-12-26 05:17:00,
2013-12-25 23:22:00,26.2,21.5,30.32,SW,233,1.0,3.0,82,0.00,,CLR,0.00,VWS V14.01,2013-12-26 05:22:00,
2013-12-25 23:27:00,25.9,21.2,30.32,SW,233,2.0,2.0,82,0.00,,CLR,0.00,VWS V14.01,2013-12-26 05:27:00,
2013-12-25 23:32:00,25.7,21.3,30.32,SW,233,2.0,2.0,83,0.00,,CLR,0.00,VWS V14.01,2013-12-26 05:32:00,
2013-12-25 23:37:00,25.7,21.3,30.32,SW,233,1.0,2.0,83,0.00,,CLR,0.00,VWS V14.01,2013-12-26 05:37:00,
2013-12-25 23:42:00,25.6,21.2,30.32,SW,233,1.0,2.0,83,0.00,,CLR,0.00,VWS V14.01,2013-12-26 05:42:00,
2013-12-25 23:47:00,25.7,21.5,30.32,SW,233,2.0,2.0,84,0.00,,CLR,0.00,VWS V14.01,2013-12-26 05:47:00,
2013-12-25 23:52:00,26.0,21.8,30.32,WSW,251,3.0,4.0,84,0.00,,CLR,0.00,VWS V14.01,2013-12-26 05:52:00,
2013-12-25 23:57:00,26.2,21.8,30.32,WSW,241,3.0,4.0,83,0.00,,CLR,0.00,VWS V14.01,2013-12-26 05:57:00,